Time;durP1;ratioP1;P1;durP2;ratioP2;P2;SDS_P1;SDS_P2;PMS_P1;PMS_P2;Temp;Humidity;BMP_temperature;BMP_pressure;BME280_temperature;BME280_humidity;BME280_pressure;Samples;Min_cycle;Max_cycle;Signal;HPM_P1;HPM_P2
2022/09/02 00:02:18;;;;;;;12.95;6.53;;;15.90;99.90;;;;;;5010668;28;20038;-67
2022/09/02 00:04:44;;;;;;;9.93;5.65;;;15.90;99.90;;;;;;5012207;28;20022;-73
2022/09/02 00:07:09;;;;;;;10.23;6.28;;;15.90;99.90;;;;;;5014820;28;20484;-73
2022/09/02 00:09:36;;;;;;;10.23;5.50;;;15.90;99.90;;;;;;5014407;28;20492;-75
2022/09/02 00:12:03;;;;;;;9.02;5.20;;;15.90;99.90;;;;;;5014496;28;20022;-75
2022/09/02 00:14:33;;;;;;;9.38;5.57;;;15.80;99.90;;;;;;5014418;28;20030;-71
2022/09/02 00:17:00;;;;;;;8.77;5.43;;;15.80;99.90;;;;;;5014493;28;20173;-71
2022/09/02 00:19:28;;;;;;;9.02;5.47;;;15.80;99.90;;;;;;5012871;28;20404;-76
2022/09/02 00:21:55;;;;;;;7.93;5.45;;;15.80;99.90;;;;;;5014337;28;20044;-70
2022/09/02 00:24:22;;;;;;;8.45;5.25;;;15.80;99.90;;;;;;5012574;28;20096;-75
2022/09/02 00:26:48;;;;;;;9.15;5.20;;;15.80;99.90;;;;;;5014296;28;20533;-74
2022/09/02 00:29:14;;;;;;;7.50;4.88;;;15.70;99.90;;;;;;5015100;28;20400;-76
2022/09/02 00:31:41;;;;;;;7.50;5.15;;;15.80;99.90;;;;;;5013756;28;20040;-68
2022/09/02 00:34:08;;;;;;;8.75;5.60;;;15.80;99.90;;;;;;5014107;28;20022;-73
2022/09/02 00:36:34;;;;;;;11.15;5.97;;;15.80;99.90;;;;;;5013610;28;20038;-72
2022/09/02 00:39:00;;;;;;;8.32;5.28;;;15.70;99.90;;;;;;5011731;28;20099;-74
2022/09/02 00:41:28;;;;;;;10.05;5.72;;;15.80;99.90;;;;;;5022628;28;20125;-69
2022/09/02 00:44:04;;;;;;;8.68;4.90;;;15.70;99.90;;;;;;5012653;28;20109;-75
2022/09/02 00:46:31;;;;;;;7.78;5.00;;;15.70;99.90;;;;;;5013357;28;20026;-73
2022/09/02 00:49:12;;;;;;;8.98;5.70;;;15.70;99.90;;;;;;5013589;28;20049;-70
2022/09/02 00:51:54;;;;;;;8.73;5.47;;;15.70;99.90;;;;;;5013931;28;20046;-76
2022/09/02 00:54:21;;;;;;;15.17;5.47;;;15.70;99.90;;;;;;5012370;28;20037;-66
2022/09/02 00:56:48;;;;;;;8.25;4.95;;;15.70;99.90;;;;;;5022422;28;20291;-74
2022/09/02 00:59:38;;;;;;;7.70;5.30;;;15.80;99.90;;;;;;5012716;28;20026;-75
2022/09/02 01:02:06;;;;;;;13.10;5.38;;;15.80;99.90;;;;;;5013108;28;20029;-72
2022/09/02 01:04:31;;;;;;;10.20;5.88;;;15.70;99.90;;;;;;5013744;28;20034;-69
2022/09/02 01:06:57;;;;;;;16.63;5.47;;;15.70;99.90;;;;;;5011902;28;20033;-73
2022/09/02 01:09:23;;;;;;;15.32;5.88;;;15.80;99.90;;;;;;5012945;28;20536;-74
2022/09/02 01:11:53;;;;;;;9.75;5.18;;;15.70;99.90;;;;;;5024756;28;20061;-75
2022/09/02 01:14:20;;;;;;;10.10;5.70;;;15.70;99.90;;;;;;5013270;28;20033;-67
2022/09/02 01:16:55;;;;;;;9.38;5.35;;;15.70;99.90;;;;;;5011753;28;20037;-67
2022/09/02 01:19:31;;;;;;;7.03;4.57;;;15.70;99.90;;;;;;5012697;28;20022;-75
2022/09/02 01:21:57;;;;;;;8.68;5.50;;;15.70;99.90;;;;;;5012378;28;20068;-70
2022/09/02 01:24:28;;;;;;;8.73;5.20;;;15.70;99.90;;;;;;5012899;28;20022;-72
2022/09/02 01:26:56;;;;;;;8.75;5.75;;;15.60;99.90;;;;;;5022803;28;20046;-73
2022/09/02 01:29:24;;;;;;;7.10;4.70;;;15.70;99.90;;;;;;5013126;28;20033;-76
2022/09/02 01:31:51;;;;;;;8.95;5.25;;;15.70;99.90;;;;;;5012907;28;20041;-72
2022/09/02 01:34:17;;;;;;;9.32;5.80;;;15.70;99.90;;;;;;5013249;28;20029;-73
2022/09/02 01:36:43;;;;;;;9.32;5.88;;;15.60;99.90;;;;;;5012651;28;20042;-74
2022/09/02 01:39:12;;;;;;;11.70;7.18;;;15.70;99.90;;;;;;5010426;28;20022;-72
2022/09/02 01:41:38;;;;;;;10.55;6.65;;;15.70;99.90;;;;;;5010872;28;20049;-74
2022/09/02 01:44:05;;;;;;;8.38;5.70;;;15.60;99.90;;;;;;5012659;28;20030;-71
2022/09/02 01:46:33;;;;;;;10.38;6.07;;;15.60;99.90;;;;;;5011216;28;20038;-75
2022/09/02 01:48:59;;;;;;;10.90;5.82;;;15.60;99.90;;;;;;5011028;28;20056;-71
2022/09/02 01:51:27;;;;;;;9.27;5.68;;;15.60;99.90;;;;;;5010775;28;20570;-67
2022/09/02 01:53:53;;;;;;;8.50;6.10;;;15.60;99.90;;;;;;5027519;28;20021;-72
2022/09/02 01:56:19;;;;;;;10.00;5.80;;;15.60;99.90;;;;;;5012258;28;20041;-71
2022/09/02 01:58:45;;;;;;;8.35;5.50;;;15.60;99.90;;;;;;5012396;28;20028;-71
2022/09/02 02:01:11;;;;;;;9.52;5.75;;;15.70;99.90;;;;;;5016348;28;20416;-73
2022/09/02 02:03:38;;;;;;;9.52;5.43;;;15.60;99.90;;;;;;5010502;28;20030;-69
2022/09/02 02:06:11;;;;;;;10.13;5.53;;;15.70;99.90;;;;;;5011223;28;20030;-75
2022/09/02 02:08:38;;;;;;;11.70;6.18;;;15.60;99.90;;;;;;5012127;28;20026;-75
2022/09/02 02:11:05;;;;;;;8.43;5.70;;;15.60;99.90;;;;;;5010521;28;20029;-75
2022/09/02 02:13:32;;;;;;;10.10;5.80;;;15.60;99.90;;;;;;5027249;28;20040;-69
2022/09/02 02:15:57;;;;;;;7.90;5.25;;;15.60;99.90;;;;;;5027180;28;20465;-69
2022/09/02 02:18:25;;;;;;;10.57;5.72;;;15.60;99.90;;;;;;5011627;28;20029;-75
2022/09/02 02:20:52;;;;;;;9.68;5.40;;;15.60;99.90;;;;;;5011236;28;20029;-75
2022/09/02 02:23:18;;;;;;;8.73;5.82;;;15.60;99.90;;;;;;5010527;28;20026;-67
2022/09/02 02:25:44;;;;;;;11.57;5.57;;;15.60;99.90;;;;;;5010220;28;20022;-71
2022/09/02 02:28:10;;;;;;;9.60;5.63;;;15.60;99.90;;;;;;5009408;28;20120;-73
2022/09/02 02:30:36;;;;;;;8.32;5.60;;;15.60;99.90;;;;;;5026475;28;20030;-73
2022/09/02 02:33:04;;;;;;;9.73;5.75;;;15.70;99.90;;;;;;5010665;28;20036;-70
2022/09/02 02:35:30;;;;;;;8.43;5.38;;;15.70;99.90;;;;;;5010565;28;20488;-71
2022/09/02 02:37:56;;;;;;;9.60;5.63;;;15.60;99.90;;;;;;5011135;28;20041;-69
2022/09/02 02:40:24;;;;;;;11.32;5.07;;;15.60;99.90;;;;;;5011348;28;20503;-74
2022/09/02 02:42:52;;;;;;;11.35;5.28;;;15.60;99.90;;;;;;5026136;28;20034;-74
2022/09/02 02:45:21;;;;;;;9.90;5.45;;;15.60;99.90;;;;;;5009924;28;20539;-71
2022/09/02 02:47:48;;;;;;;10.10;6.15;;;15.70;99.90;;;;;;5009691;28;20052;-72
2022/09/02 02:50:17;;;;;;;9.40;5.82;;;15.70;99.90;;;;;;5009839;28;20026;-75
2022/09/02 02:52:45;;;;;;;12.43;5.38;;;15.60;99.90;;;;;;5027032;28;20037;-74
2022/09/02 02:55:12;;;;;;;10.57;5.15;;;15.60;99.90;;;;;;5011631;28;20544;-74
2022/09/02 02:57:40;;;;;;;13.15;6.45;;;15.70;99.90;;;;;;5009593;28;20046;-75
2022/09/02 03:00:13;;;;;;;12.88;6.10;;;15.60;99.90;;;;;;5011618;28;20099;-76
2022/09/02 03:02:40;;;;;;;10.02;6.40;;;15.60;99.90;;;;;;5010020;28;20034;-70
2022/09/02 03:05:08;;;;;;;8.48;5.65;;;15.60;99.90;;;;;;5009863;28;20547;-75
2022/09/02 03:07:34;;;;;;;9.43;5.97;;;15.60;99.90;;;;;;5009793;28;20026;-75
2022/09/02 03:10:02;;;;;;;11.40;5.72;;;15.70;99.90;;;;;;5009853;28;20029;-75
2022/09/02 03:12:32;;;;;;;9.00;5.60;;;15.70;99.90;;;;;;5009491;28;20205;-76
2022/09/02 03:14:58;;;;;;;12.50;6.20;;;15.60;99.90;;;;;;5011187;28;20025;-67
2022/09/02 03:17:24;;;;;;;10.55;6.70;;;15.70;99.90;;;;;;5009273;28;20037;-72
2022/09/02 03:19:51;;;;;;;11.05;5.75;;;15.60;99.90;;;;;;5010067;28;20040;-76
2022/09/02 03:22:17;;;;;;;11.63;6.38;;;15.70;99.90;;;;;;5009723;28;20075;-74
2022/09/02 03:24:44;;;;;;;10.77;5.57;;;15.70;99.90;;;;;;5010326;28;20473;-76
2022/09/02 03:27:11;;;;;;;9.25;6.20;;;15.60;99.90;;;;;;5009587;28;20065;-72
2022/09/02 03:29:38;;;;;;;13.48;6.47;;;15.60;99.90;;;;;;5009674;28;20052;-75
2022/09/02 03:32:04;;;;;;;10.82;5.93;;;15.70;99.90;;;;;;5011431;28;20026;-69
2022/09/02 03:34:31;;;;;;;8.98;5.65;;;15.70;99.90;;;;;;5011067;28;20145;-76
2022/09/02 03:36:57;;;;;;;9.35;5.90;;;15.70;99.90;;;;;;5009890;28;20033;-72
2022/09/02 03:39:24;;;;;;;9.43;5.60;;;15.70;99.90;;;;;;5026357;28;20029;-71
2022/09/02 03:41:50;;;;;;;11.88;5.88;;;15.60;99.90;;;;;;5029670;28;20053;-67
2022/09/02 03:44:16;;;;;;;8.35;5.50;;;15.70;99.90;;;;;;5029388;28;20040;-73
2022/09/02 03:46:43;;;;;;;9.98;5.85;;;15.70;99.90;;;;;;5013153;28;20032;-75
2022/09/02 03:49:10;;;;;;;9.90;6.13;;;15.70;99.90;;;;;;5028906;28;20053;-76
2022/09/02 03:51:40;;;;;;;9.65;5.90;;;15.70;99.90;;;;;;5013087;28;20037;-69
2022/09/02 03:54:06;;;;;;;10.32;5.65;;;15.70;99.90;;;;;;5013260;28;20022;-73
2022/09/02 03:56:33;;;;;;;8.63;6.18;;;15.70;99.90;;;;;;5012821;28;20041;-75
2022/09/02 03:59:01;;;;;;;10.05;6.13;;;15.60;99.90;;;;;;5013104;28;20113;-70
2022/09/02 04:01:27;;;;;;;9.80;5.28;;;15.70;99.90;;;;;;5012754;28;20033;-76
2022/09/02 04:03:55;;;;;;;9.68;5.22;;;15.70;99.90;;;;;;5012282;28;20535;-73
2022/09/02 04:06:23;;;;;;;7.55;4.85;;;15.60;99.90;;;;;;5028854;28;20564;-75
2022/09/02 04:08:51;;;;;;;8.75;6.07;;;15.60;99.90;;;;;;5012916;28;20029;-75
2022/09/02 04:11:19;;;;;;;10.65;6.00;;;15.50;99.90;;;;;;5011770;28;20049;-69
2022/09/02 04:13:50;;;;;;;10.60;6.32;;;15.50;99.90;;;;;;5028533;28;20026;-73
2022/09/02 04:16:26;;;;;;;10.10;5.70;;;15.50;99.90;;;;;;5018205;28;20415;-73
2022/09/02 04:18:53;;;;;;;10.35;5.75;;;15.50;99.90;;;;;;5013976;28;20104;-73
2022/09/02 04:21:20;;;;;;;9.52;5.93;;;15.50;99.90;;;;;;5011862;28;20476;-75
2022/09/02 04:23:46;;;;;;;12.75;5.75;;;15.50;99.90;;;;;;5010680;28;20113;-74
2022/09/02 04:26:14;;;;;;;9.73;5.60;;;15.50;99.90;;;;;;5001968;28;20094;-69
2022/09/02 04:28:41;;;;;;;11.85;6.55;;;15.50;99.90;;;;;;4994893;28;20026;-74
2022/09/02 04:31:10;;;;;;;11.02;6.05;;;15.50;99.90;;;;;;5007549;28;20097;-73
2022/09/02 04:33:37;;;;;;;9.77;6.18;;;15.50;99.90;;;;;;5007728;28;20069;-73
2022/09/02 04:36:06;;;;;;;7.63;5.40;;;15.60;99.90;;;;;;5008718;28;20034;-72
2022/09/02 04:38:33;;;;;;;8.73;5.80;;;15.60;99.90;;;;;;4993163;28;20038;-70
2022/09/02 04:41:00;;;;;;;8.18;6.05;;;15.60;99.90;;;;;;4996017;28;20018;-73
2022/09/02 04:43:27;;;;;;;9.05;5.55;;;15.50;99.90;;;;;;5009186;28;20473;-72
2022/09/02 04:45:53;;;;;;;9.43;5.47;;;15.60;99.90;;;;;;4995576;28;20029;-74
2022/09/02 04:48:19;;;;;;;11.15;6.40;;;15.60;99.90;;;;;;5011961;28;20049;-75
2022/09/02 04:50:47;;;;;;;13.93;6.40;;;15.60;99.90;;;;;;5013120;28;20495;-74
2022/09/02 04:53:14;;;;;;;9.57;6.05;;;15.60;99.90;;;;;;5013543;28;20227;-75
2022/09/02 04:55:41;;;;;;;11.25;6.28;;;15.60;99.90;;;;;;5012890;28;20075;-75
2022/09/02 04:58:10;;;;;;;9.52;6.20;;;15.70;99.90;;;;;;5011821;28;20079;-75
2022/09/02 05:00:38;;;;;;;13.40;6.15;;;15.60;99.90;;;;;;5012710;28;20015;-75
2022/09/02 05:03:06;;;;;;;10.45;5.45;;;15.60;99.90;;;;;;5012334;28;20026;-76
2022/09/02 05:05:34;;;;;;;11.00;5.30;;;15.60;99.90;;;;;;5012617;28;20057;-75
2022/09/02 05:08:03;;;;;;;8.73;5.00;;;15.60;99.90;;;;;;5013552;28;20227;-72
2022/09/02 05:10:31;;;;;;;11.13;5.32;;;15.50;99.90;;;;;;5012084;28;20040;-74
2022/09/02 05:12:59;;;;;;;9.85;5.32;;;15.50;99.90;;;;;;5011958;28;20484;-73
2022/09/02 05:15:26;;;;;;;8.48;5.20;;;15.50;99.90;;;;;;5012246;28;20034;-75
2022/09/02 05:17:53;;;;;;;11.13;4.95;;;15.50;99.90;;;;;;5012268;28;20034;-75
2022/09/02 05:20:19;;;;;;;11.25;5.65;;;15.40;99.90;;;;;;5012430;28;20484;-75
2022/09/02 05:22:46;;;;;;;7.82;5.28;;;15.50;99.90;;;;;;5012116;28;20030;-75
2022/09/02 05:25:14;;;;;;;11.38;5.82;;;15.40;99.90;;;;;;5011898;28;20114;-75
2022/09/02 05:27:40;;;;;;;7.10;4.35;;;15.30;99.90;;;;;;5012131;28;20447;-76
2022/09/02 05:30:07;;;;;;;7.38;4.25;;;15.30;99.90;;;;;;5012204;28;20030;-75
2022/09/02 05:32:35;;;;;;;8.43;4.40;;;15.20;99.90;;;;;;5012848;28;20045;-76
2022/09/02 05:35:01;;;;;;;8.02;4.38;;;15.20;99.90;;;;;;5013612;28;20042;-75
2022/09/02 05:37:27;;;;;;;8.05;5.10;;;15.20;99.90;;;;;;5012647;28;20026;-75
2022/09/02 05:39:53;;;;;;;7.78;4.80;;;15.30;99.90;;;;;;5013300;28;20495;-76
2022/09/02 05:42:19;;;;;;;7.50;4.25;;;15.30;99.90;;;;;;5011235;28;20030;-75
2022/09/02 05:44:47;;;;;;;7.78;4.28;;;15.30;99.90;;;;;;5011745;28;20026;-73
2022/09/02 05:47:17;;;;;;;10.70;4.85;;;15.20;99.90;;;;;;5010862;28;20037;-76
2022/09/02 05:49:43;;;;;;;6.68;4.43;;;15.20;99.90;;;;;;5011621;28;20033;-69
2022/09/02 05:52:12;;;;;;;7.47;4.78;;;15.20;99.90;;;;;;5011593;28;20037;-75
2022/09/02 05:54:42;;;;;;;7.05;4.18;;;15.10;99.90;;;;;;5011040;28;20364;-76
2022/09/02 05:57:13;;;;;;;6.63;4.55;;;15.10;99.90;;;;;;5011102;28;20030;-75
2022/09/02 06:00:04;;;;;;;8.45;4.47;;;15.10;99.90;;;;;;5011717;28;20029;-75
2022/09/02 06:02:39;;;;;;;9.88;3.97;;;15.10;99.90;;;;;;5019990;28;20049;-74
2022/09/02 06:05:07;;;;;;;8.32;4.47;;;15.00;99.90;;;;;;5017157;28;20029;-74
2022/09/02 06:07:35;;;;;;;9.68;5.05;;;15.10;99.90;;;;;;5012434;28;20060;-75
2022/09/02 06:10:03;;;;;;;7.43;4.43;;;15.10;99.90;;;;;;5012469;28;20060;-77
2022/09/02 06:12:31;;;;;;;7.65;5.15;;;15.00;99.90;;;;;;5011096;28;20033;-72
2022/09/02 06:14:58;;;;;;;6.32;4.20;;;15.00;99.90;;;;;;5010973;28;20033;-71
2022/09/02 06:17:26;;;;;;;10.93;4.70;;;15.00;99.90;;;;;;5011011;28;20038;-75
2022/09/02 06:19:52;;;;;;;7.78;4.25;;;15.00;99.90;;;;;;5010750;28;20037;-75
2022/09/02 06:22:20;;;;;;;6.63;3.83;;;15.00;99.90;;;;;;5011123;28;20080;-75
2022/09/02 06:24:47;;;;;;;6.88;4.28;;;15.00;99.90;;;;;;5011359;28;20054;-75
2022/09/02 06:27:18;;;;;;;6.28;4.25;;;15.10;99.90;;;;;;5011041;28;20034;-75
2022/09/02 06:29:48;;;;;;;9.35;4.07;;;15.10;99.90;;;;;;5007824;28;20061;-74
2022/09/02 06:32:18;;;;;;;5.93;4.25;;;15.10;99.90;;;;;;5006476;28;20041;-72
2022/09/02 06:34:44;;;;;;;7.38;4.55;;;15.10;99.90;;;;;;5010498;28;20026;-75
2022/09/02 06:37:09;;;;;;;6.13;4.45;;;15.10;99.90;;;;;;5011696;28;20080;-75
2022/09/02 06:39:42;;;;;;;11.07;4.60;;;15.10;99.90;;;;;;5010932;28;20492;-75
2022/09/02 06:42:10;;;;;;;10.32;5.50;;;15.20;99.90;;;;;;5010725;28;20692;-73
2022/09/02 06:44:45;;;;;;;9.57;4.88;;;15.20;99.90;;;;;;5010957;28;20025;-74
2022/09/02 06:47:10;;;;;;;8.98;4.93;;;15.20;99.90;;;;;;5011529;28;20440;-75
2022/09/02 06:49:37;;;;;;;6.15;3.90;;;15.20;99.90;;;;;;5010082;28;20113;-75
2022/09/02 06:52:04;;;;;;;8.68;4.78;;;15.10;99.90;;;;;;5010613;28;20160;-74
2022/09/02 06:54:34;;;;;;;6.75;4.22;;;15.20;99.90;;;;;;5010261;28;20026;-75
2022/09/02 06:57:12;;;;;;;6.63;4.13;;;15.20;99.90;;;;;;5010598;28;20037;-74
2022/09/02 06:59:37;;;;;;;8.50;4.28;;;15.30;99.90;;;;;;5010171;28;20032;-76
2022/09/02 07:02:04;;;;;;;5.93;3.45;;;15.30;99.90;;;;;;5010652;28;20382;-74
2022/09/02 07:07:19;;;;;;;8.20;4.05;;;15.30;99.90;;;;;;5009386;28;20061;-75
2022/09/02 07:09:55;;;;;;;8.45;4.88;;;15.30;99.90;;;;;;5009988;28;20093;-75
2022/09/02 07:12:21;;;;;;;6.65;4.22;;;15.30;99.90;;;;;;5009177;28;20380;-75
2022/09/02 07:14:53;;;;;;;9.02;4.60;;;15.30;99.90;;;;;;5012628;28;20099;-76
2022/09/02 07:17:38;;;;;;;7.50;5.00;;;15.20;99.90;;;;;;4996070;28;20045;-69
2022/09/02 07:20:10;;;;;;;7.00;4.07;;;15.20;99.90;;;;;;5011258;28;20096;-74
2022/09/02 07:22:41;;;;;;;7.50;5.20;;;15.20;99.90;;;;;;5013423;28;20032;-72
2022/09/02 07:25:09;;;;;;;10.18;5.43;;;15.20;99.90;;;;;;5015020;28;20421;-76
2022/09/02 07:27:36;;;;;;;10.77;5.80;;;15.20;99.90;;;;;;5013905;28;20029;-75
2022/09/02 07:30:05;;;;;;;10.32;5.55;;;15.30;99.90;;;;;;5014552;28;20559;-75
2022/09/02 07:32:31;;;;;;;10.10;5.60;;;15.20;99.90;;;;;;5013875;28;20022;-75
2022/09/02 07:34:57;;;;;;;9.90;5.78;;;15.20;99.90;;;;;;5015702;28;20036;-75
2022/09/02 07:37:24;;;;;;;15.05;5.97;;;15.20;99.90;;;;;;5013574;28;20060;-75
2022/09/02 07:39:50;;;;;;;7.50;5.53;;;15.20;99.90;;;;;;5014387;28;20030;-76
2022/09/02 07:42:18;;;;;;;11.88;6.75;;;15.20;99.90;;;;;;5013390;28;20079;-76
2022/09/02 07:44:45;;;;;;;10.55;5.70;;;15.30;99.90;;;;;;5013239;28;20476;-75
2022/09/02 07:47:11;;;;;;;10.90;5.90;;;15.30;99.90;;;;;;5030321;28;20046;-74
2022/09/02 07:49:39;;;;;;;11.38;6.60;;;15.30;99.90;;;;;;5013896;28;20076;-74
2022/09/02 07:52:05;;;;;;;9.55;5.63;;;15.20;99.90;;;;;;5013937;28;20026;-74
2022/09/02 07:54:33;;;;;;;8.13;5.18;;;15.20;99.90;;;;;;5014430;28;20022;-75
2022/09/02 07:57:01;;;;;;;10.98;6.03;;;15.30;99.90;;;;;;5013042;28;20046;-73
2022/09/02 07:59:28;;;;;;;12.40;5.75;;;15.40;99.90;;;;;;5013663;28;20492;-70
2022/09/02 08:01:56;;;;;;;10.90;4.90;;;15.30;99.90;;;;;;5013504;28;20057;-64
2022/09/02 08:04:23;;;;;;;9.45;5.47;;;15.30;99.90;;;;;;5014418;28;20113;-76
2022/09/02 08:06:52;;;;;;;7.47;4.63;;;15.30;99.90;;;;;;5012741;28;20026;-75
2022/09/02 08:09:19;;;;;;;10.25;6.05;;;15.30;99.90;;;;;;5014798;28;20044;-73
2022/09/02 08:11:47;;;;;;;6.95;4.78;;;15.40;99.90;;;;;;5014113;28;20420;-76
2022/09/02 08:14:16;;;;;;;7.93;5.05;;;15.60;99.90;;;;;;5014803;28;20022;-75
2022/09/02 08:16:43;;;;;;;10.88;5.45;;;15.60;99.90;;;;;;5014367;28;20044;-74
2022/09/02 08:19:10;;;;;;;9.35;5.93;;;15.60;99.90;;;;;;5014450;28;20022;-72
2022/09/02 08:21:36;;;;;;;8.68;5.90;;;15.60;99.90;;;;;;5014422;28;20468;-74
2022/09/02 08:24:02;;;;;;;14.25;6.93;;;15.70;99.90;;;;;;5014274;28;20026;-72
2022/09/02 08:26:29;;;;;;;11.63;7.30;;;15.60;99.90;;;;;;5011987;28;20054;-74
2022/09/02 08:28:55;;;;;;;11.35;6.32;;;15.50;99.90;;;;;;5014094;28;20029;-72
2022/09/02 08:31:21;;;;;;;14.25;6.97;;;15.50;99.90;;;;;;5014687;28;20033;-75
2022/09/02 08:33:47;;;;;;;8.70;5.97;;;15.50;99.90;;;;;;5014467;28;20026;-73
2022/09/02 08:36:14;;;;;;;8.57;6.15;;;15.60;99.90;;;;;;5014312;28;20041;-74
2022/09/02 08:38:41;;;;;;;10.50;6.78;;;15.60;99.90;;;;;;5014447;28;20018;-73
2022/09/02 08:41:26;;;;;;;9.90;6.63;;;15.70;99.90;;;;;;5014096;28;20080;-73
2022/09/02 08:43:59;;;;;;;10.07;6.47;;;15.70;99.90;;;;;;5014201;28;20041;-74
2022/09/02 08:46:27;;;;;;;10.27;5.95;;;15.70;99.90;;;;;;5013963;28;20037;-74
2022/09/02 08:49:03;;;;;;;12.35;7.20;;;15.80;99.90;;;;;;5014280;28;20081;-73
2022/09/02 08:51:55;;;;;;;10.27;6.00;;;15.80;99.90;;;;;;5012273;28;20369;-73
2022/09/02 08:54:39;;;;;;;13.87;7.80;;;15.70;99.90;;;;;;5013302;28;20030;-73
2022/09/02 08:57:05;;;;;;;8.00;6.00;;;15.70;99.90;;;;;;5013688;28;20476;-74
2022/09/02 08:59:30;;;;;;;11.68;7.30;;;15.70;99.90;;;;;;5012972;28;20033;-74
2022/09/02 09:02:11;;;;;;;13.30;8.00;;;15.60;99.90;;;;;;5013463;28;20426;-75
2022/09/02 09:04:55;;;;;;;13.30;7.00;;;15.70;99.90;;;;;;5013407;28;20112;-72
2022/09/02 09:07:31;;;;;;;14.00;6.90;;;15.70;99.90;;;;;;5012614;28;20018;-72
2022/09/02 09:10:03;;;;;;;14.45;7.43;;;15.80;99.90;;;;;;5012525;28;20030;-72
2022/09/02 09:12:28;;;;;;;10.13;5.28;;;15.80;99.90;;;;;;5012377;28;20095;-74
2022/09/02 09:15:12;;;;;;;9.55;6.05;;;15.90;99.90;;;;;;5013096;28;20473;-73
2022/09/02 09:17:50;;;;;;;10.52;5.65;;;16.00;99.90;;;;;;5011627;28;20038;-73
2022/09/02 09:20:21;;;;;;;7.85;4.75;;;15.90;99.90;;;;;;5013343;28;20380;-73
2022/09/02 09:22:49;;;;;;;7.88;5.28;;;15.90;99.90;;;;;;5012548;28;20025;-74
2022/09/02 09:25:17;;;;;;;8.02;5.22;;;15.90;99.90;;;;;;5012644;28;20044;-74
2022/09/02 09:27:46;;;;;;;8.35;5.47;;;15.90;99.90;;;;;;5012905;28;20029;-72
2022/09/02 09:30:13;;;;;;;6.55;4.75;;;15.90;99.90;;;;;;5012746;28;20030;-73
2022/09/02 09:32:48;;;;;;;12.13;5.93;;;15.90;99.90;;;;;;5012687;28;20041;-72
2022/09/02 09:35:16;;;;;;;8.20;5.18;;;15.80;99.90;;;;;;5012668;28;20440;-73
2022/09/02 09:37:47;;;;;;;7.30;4.90;;;15.80;99.90;;;;;;5012395;28;20030;-73
2022/09/02 09:40:22;;;;;;;10.20;5.65;;;15.80;99.90;;;;;;5012495;28;20061;-73
2022/09/02 09:43:00;;;;;;;5.78;4.05;;;15.80;99.90;;;;;;5012580;28;20026;-72
2022/09/02 09:45:39;;;;;;;10.60;5.00;;;15.80;99.90;;;;;;5012528;28;20026;-72
2022/09/02 09:48:30;;;;;;;5.40;4.00;;;15.90;99.90;;;;;;5011923;28;20608;-73
2022/09/02 09:50:56;;;;;;;9.70;5.38;;;15.90;99.90;;;;;;5012338;28;20054;-74
2022/09/02 09:53:24;;;;;;;11.27;6.10;;;16.10;99.90;;;;;;5012559;28;20357;-70
2022/09/02 09:56:05;;;;;;;9.60;5.38;;;16.10;99.90;;;;;;5011982;28;20037;-72
2022/09/02 09:58:40;;;;;;;16.15;6.20;;;16.10;99.90;;;;;;5012179;28;20109;-73
2022/09/02 10:01:22;;;;;;;8.80;5.05;;;16.20;99.90;;;;;;5024474;28;20026;-71
2022/09/02 10:03:59;;;;;;;8.57;3.83;;;16.20;99.90;;;;;;4998651;28;20022;-72
2022/09/02 10:06:31;;;;;;;8.00;4.88;;;16.40;99.90;;;;;;5012015;28;20033;-72
2022/09/02 10:09:17;;;;;;;10.55;5.15;;;16.50;99.90;;;;;;5012397;28;20022;-72
2022/09/02 10:11:55;;;;;;;9.43;4.53;;;16.60;99.90;;;;;;5012318;28;20141;-72
2022/09/02 10:14:22;;;;;;;7.38;4.20;;;16.70;99.90;;;;;;5012043;28;20077;-72
2022/09/02 10:16:55;;;;;;;7.35;4.32;;;16.70;99.90;;;;;;5012385;28;20060;-72
2022/09/02 10:19:48;;;;;;;7.75;4.15;;;16.80;99.90;;;;;;5011892;28;20429;-73
2022/09/02 10:22:51;;;;;;;8.60;4.45;;;16.90;99.90;;;;;;4970175;28;20042;-73
2022/09/02 10:25:40;;;;;;;8.88;3.78;;;17.10;99.90;;;;;;4970259;28;20478;-72
2022/09/02 10:28:34;;;;;;;7.13;4.40;;;17.10;99.90;;;;;;4970385;28;20034;-72
2022/09/02 10:31:52;;;;;;;10.15;4.60;;;17.00;99.90;;;;;;4970827;28;20069;-72
2022/09/02 10:34:18;;;;;;;5.32;3.90;;;17.10;99.90;;;;;;4930654;29;20067;-73
2022/09/02 10:36:53;;;;;;;6.53;3.60;;;17.20;99.90;;;;;;4931235;29;20079;-73
2022/09/02 10:39:32;;;;;;;14.27;5.03;;;17.30;99.90;;;;;;4929391;29;20031;-72
2022/09/02 10:42:11;;;;;;;6.18;4.05;;;17.40;99.90;;;;;;4931168;29;20036;-69
2022/09/02 10:45:02;;;;;;;4.88;3.10;;;17.50;99.90;;;;;;4931447;29;20558;-72
2022/09/02 10:47:36;;;;;;;7.05;3.78;;;17.60;99.90;;;;;;4931216;29;20494;-72
2022/09/02 10:50:15;;;;;;;6.55;3.85;;;17.60;99.90;;;;;;4928271;29;20085;-72
2022/09/02 10:52:55;;;;;;;5.82;3.80;;;17.60;99.90;;;;;;4929285;29;20124;-70
2022/09/02 10:55:32;;;;;;;8.90;4.28;;;17.50;99.90;;;;;;4930564;29;20151;-73
2022/09/02 10:58:18;;;;;;;8.45;4.10;;;17.40;99.90;;;;;;4931030;29;20066;-73
2022/09/02 11:00:49;;;;;;;6.50;3.58;;;17.50;99.90;;;;;;4960273;28;20031;-73
2022/09/02 11:03:47;;;;;;;8.93;4.25;;;17.60;99.90;;;;;;4969661;28;20035;-73
2022/09/02 11:06:23;;;;;;;7.97;4.18;;;17.70;99.90;;;;;;4966647;28;20121;-73
2022/09/02 11:08:51;;;;;;;8.05;4.43;;;17.60;99.90;;;;;;4962633;28;20028;-73
2022/09/02 11:11:51;;;;;;;8.68;4.20;;;17.70;99.90;;;;;;4999230;28;20476;-72
2022/09/02 11:14:36;;;;;;;6.07;3.85;;;17.60;99.90;;;;;;5011151;28;20022;-72
2022/09/02 11:17:09;;;;;;;6.15;3.28;;;17.70;99.90;;;;;;5011295;28;20042;-73
2022/09/02 11:19:42;;;;;;;10.70;4.20;;;17.70;99.90;;;;;;5010903;28;20543;-73
2022/09/02 11:22:34;;;;;;;14.45;6.35;;;17.80;99.90;;;;;;5010819;28;20029;-71
2022/09/02 11:25:07;;;;;;;9.30;4.40;;;17.80;99.90;;;;;;5011227;28;20058;-72
2022/09/02 11:27:52;;;;;;;9.73;4.10;;;17.70;99.90;;;;;;5011607;28;20045;-71
2022/09/02 11:30:21;;;;;;;6.20;3.53;;;17.80;99.90;;;;;;5011174;28;20057;-72
2022/09/02 11:33:04;;;;;;;10.55;4.30;;;17.90;99.90;;;;;;5011276;28;20026;-73
2022/09/02 11:35:37;;;;;;;9.20;4.43;;;18.00;99.90;;;;;;5011092;28;20033;-72
2022/09/02 11:38:06;;;;;;;5.97;3.92;;;18.00;99.90;;;;;;5010914;28;20041;-73
2022/09/02 11:40:55;;;;;;;5.35;3.50;;;18.10;99.90;;;;;;5011011;28;20384;-73
2022/09/02 11:43:35;;;;;;;5.28;3.83;;;18.00;99.90;;;;;;5010650;28;20038;-73
2022/09/02 11:46:18;;;;;;;7.97;3.95;;;18.10;99.90;;;;;;5010889;28;20050;-73
2022/09/02 11:49:31;;;;;;;8.73;4.00;;;18.10;99.90;;;;;;5007335;28;20154;-72
2022/09/02 11:52:22;;;;;;;6.75;4.18;;;18.30;99.90;;;;;;4967674;28;20041;-73
2022/09/02 11:55:03;;;;;;;6.63;3.80;;;18.20;99.90;;;;;;4953508;28;20450;-73
2022/09/02 11:57:31;;;;;;;9.40;3.60;;;18.10;99.90;;;;;;4968935;28;20038;-72
2022/09/02 11:59:57;;;;;;;4.15;3.42;;;18.20;99.90;;;;;;4969188;28;20023;-73
2022/09/02 12:02:42;;;;;;;10.10;3.60;;;18.20;99.90;;;;;;4973155;28;20038;-73
2022/09/02 12:05:29;;;;;;;7.05;4.50;;;18.10;99.90;;;;;;4972925;28;20470;-73
2022/09/02 12:07:56;;;;;;;4.82;3.75;;;18.10;99.90;;;;;;4972688;28;20383;-74
2022/09/02 12:10:48;;;;;;;5.15;3.35;;;18.00;99.90;;;;;;4972891;28;20045;-72
2022/09/02 12:13:35;;;;;;;8.37;3.93;;;17.90;99.90;;;;;;4970878;28;20031;-73
2022/09/02 12:16:19;;;;;;;14.07;6.13;;;17.90;99.90;;;;;;4972424;28;20078;-73
2022/09/02 12:19:07;;;;;;;13.60;4.90;;;17.90;99.90;;;;;;4972572;28;20444;-70
2022/09/02 12:21:34;;;;;;;11.75;5.85;;;17.90;99.90;;;;;;4966380;28;20039;-72
2022/09/02 12:24:06;;;;;;;18.17;6.05;;;18.10;99.90;;;;;;4972308;28;20175;-73
2022/09/02 12:26:35;;;;;;;10.35;5.30;;;18.00;99.90;;;;;;4979938;28;20485;-71
2022/09/02 12:29:29;;;;;;;10.45;5.18;;;17.90;99.90;;;;;;5013039;28;20336;-69
2022/09/02 12:31:56;;;;;;;5.53;4.28;;;17.90;99.90;;;;;;5013553;28;20029;-67
2022/09/02 12:34:21;;;;;;;8.38;3.30;;;17.80;99.90;;;;;;5014112;28;20456;-72
2022/09/02 12:36:53;;;;;;;5.60;3.75;;;18.00;99.90;;;;;;5013692;28;20076;-72
2022/09/02 12:39:26;;;;;;;11.20;3.13;;;18.00;99.90;;;;;;5013508;28;20045;-72
2022/09/02 12:42:08;;;;;;;5.70;3.42;;;18.00;99.90;;;;;;5013519;28;20496;-71
2022/09/02 12:44:56;;;;;;;6.60;3.50;;;18.20;99.90;;;;;;5011601;28;20036;-73
2022/09/02 12:47:34;;;;;;;6.57;3.05;;;18.40;99.90;;;;;;5013365;28;20148;-73
2022/09/02 12:50:03;;;;;;;7.10;3.50;;;18.60;99.90;;;;;;5013751;28;20034;-72
2022/09/02 12:52:34;;;;;;;5.80;3.17;;;18.70;99.90;;;;;;5013877;28;20022;-73
2022/09/02 12:55:11;;;;;;;6.85;3.72;;;18.60;99.90;;;;;;5012602;28;20034;-72
2022/09/02 12:57:43;;;;;;;9.93;3.35;;;18.60;99.90;;;;;;5013050;28;20073;-72
2022/09/02 13:00:25;;;;;;;7.65;3.58;;;18.50;99.90;;;;;;5013521;28;20025;-73
2022/09/02 13:03:12;;;;;;;7.55;3.30;;;18.50;99.90;;;;;;5013668;28;20310;-74
2022/09/02 13:05:50;;;;;;;7.28;3.53;;;18.40;99.90;;;;;;5011016;28;20341;-73
2022/09/02 13:08:37;;;;;;;5.72;3.05;;;18.30;99.90;;;;;;5011873;28;20022;-73